Latest Weather Observations for Blackwater Airport

IDQ60801

Issued at 3:35 pm EST Sunday 26 October 2014 (issued every 30 minutes, with the page automatically refreshed every 10 minutes)

About weather observations | Map of weather stations | Latest weather observations for QLD | Other Formats
Station Details ID: 035134 Name: BLACKWATER AIRPORT Lat: -23.60 Lon: 148.81 Height: 192.95 m
Data from the previous 72 hours. | See also: Recent months at Blackwater Airport
Date/Time
EST
Temp
°C
App
Temp
°C
Dew
Point
Rel
Hum
%
Delta-T
°C
Wind Press
QNH
hPa
Press
MSL
hPa
Rain
since 9 am
mm
Dir
 
Spd
km/h
Gust
km/h
Spd
kts
Gust
kts
26/03:30pm 36.3 35.2 10.5 21 15.2 E 7 22 4 12 1012.5 1011.6 0.0
26/03:00pm 35.2 33.2 10.3 22 14.6 N 11 17 6 9 1013.0 1012.1 0.0
26/02:30pm 35.0 33.9 10.8 23 14.3 NE 7 15 4 8 1013.3 1012.4 0.0
26/02:00pm 34.9 33.1 10.7 23 14.2 W 11 17 6 9 1013.8 1012.9 0.0
26/01:30pm 34.3 32.9 10.8 24 13.8 NW 9 13 5 7 1014.5 1013.5 0.0
26/01:00pm 33.8 32.6 11.6 26 13.2 N 9 17 5 9 1015.1 1014.1 0.0
26/12:30pm 32.6 30.7 11.7 28 12.4 NW 13 24 7 13 1015.8 1014.8 0.0
26/12:00pm 32.1 31.0 11.8 29 12.0 NW 9 15 5 8 1016.3 1015.3 0.0
26/11:30am 30.8 29.2 11.7 31 11.2 NW 11 19 6 10 1017.0 1016.0 0.0
26/11:00am 30.2 27.9 11.7 32 10.8 NNW 15 24 8 13 1017.5 1016.6 0.0
26/10:30am 28.9 27.4 11.9 35 9.9 NNE 11 19 6 10 1018.1 1017.2 0.0
26/10:00am 27.4 26.0 12.2 39 8.9 N 11 19 6 10 1018.6 1017.7 0.0
26/09:30am 26.9 25.6 13.6 44 7.9 N 13 22 7 12 1018.9 1018.0 0.0
26/09:00am 25.1 23.6 14.3 51 6.4 N 15 24 8 13 1019.1 1018.2 0.0
26/08:30am 23.7 22.1 14.9 57 5.3 N 17 26 9 14 1019.3 1018.4 0.0
26/08:00am 23.4 21.7 15.7 62 4.7 N 19 24 10 13 1019.2 1018.3 0.0
26/07:30am 21.8 20.2 16.1 70 3.5 N 19 24 10 13 1019.1 1018.2 0.0
26/07:00am 20.7 19.4 15.9 74 2.9 N 17 20 9 11 1018.8 1017.9 0.0
26/06:30am 19.5 19.9 16.2 81 2.0 NNE 9 13 5 7 1018.6 1017.7 0.0
26/06:00am 17.2 17.3 15.5 90 1.0 NNE 9 11 5 6 1018.2 1017.3 0.0
26/05:30am 16.5 16.4 14.9 90 0.9 NNE 9 11 5 6 1017.9 1017.0 0.0
26/05:00am 16.5 15.9 14.7 89 1.0 NNE 11 13 6 7 1017.5 1016.6 0.0
26/04:30am 16.4 15.7 14.2 87 1.3 NNE 11 11 6 6 1017.2 1016.3 0.0
26/04:00am 16.9 16.3 14.5 86 1.4 NNE 11 11 6 6 1016.9 1015.9 0.0
26/03:30am 17.4 16.9 14.9 85 1.5 NE 11 13 6 7 1016.7 1015.7 0.0
26/03:00am 17.7 17.2 15.0 84 1.6 NE 11 13 6 7 1016.5 1015.5 0.0
26/02:30am 17.9 17.4 15.0 83 1.7 NE 11 15 6 8 1016.5 1015.5 0.0
26/02:00am 18.1 17.6 14.8 81 1.9 NE 11 15 6 8 1016.7 1015.7 0.0
26/01:30am 18.8 17.8 14.7 77 2.4 NE 13 15 7 8 1016.9 1015.9 0.0
26/01:00am 19.4 18.6 15.1 76 2.5 NE 13 17 7 9 1017.3 1016.4 0.0
26/12:30am 19.6 18.7 14.8 74 2.8 NE 13 17 7 9 1017.8 1016.9 0.0
26/12:00am 20.3 19.4 14.9 71 3.2 ENE 13 19 7 10 1018.0 1017.1 0.0
 
Date/Time
EST
Temp
°C
App
Temp
°C
Dew
Point
Rel
Hum
%
Delta-T
°C
Wind Press
QNH
hPa
Press
MSL
hPa
Rain
since 9 am
mm
Dir
 
Spd
km/h
Gust
km/h
Spd
kts
Gust
kts
25/11:30pm 21.0 19.7 14.9 68 3.6 ENE 15 20 8 11 1018.0 1017.1 0.0
25/11:00pm 21.4 19.7 14.8 66 3.9 NE 17 22 9 12 1018.3 1017.4 0.0
25/10:30pm 22.2 20.1 14.6 62 4.5 ENE 19 20 10 11 1018.5 1017.6 0.0
25/10:00pm 22.1 20.8 13.7 59 4.9 NNE 13 17 7 9 1018.5 1017.6 0.0
25/09:30pm 23.1 21.7 13.3 54 5.7 NNE 13 17 7 9 1018.1 1017.2 0.0
25/09:00pm 23.9 22.0 10.6 43 7.4 NE 11 15 6 8 1017.8 1016.9 0.0
25/08:30pm 25.8 23.6 10.8 39 8.5 ENE 13 20 7 11 1017.4 1016.5 0.0
25/08:00pm 25.5 24.2 9.3 36 8.9 NE 6 9 3 5 1017.1 1016.2 0.0
25/07:30pm 25.9 24.1 9.3 35 9.2 NE 9 11 5 6 1016.8 1015.8 0.0
25/07:00pm 26.7 24.5 9.5 34 9.6 NE 11 15 6 8 1016.4 1015.4 0.0
25/06:30pm 28.0 25.4 9.3 31 10.4 NE 13 13 7 7 1016.2 1015.2 0.0
25/06:00pm 30.3 27.7 9.2 27 11.9 NNE 13 15 7 8 1016.0 1015.0 0.0
25/05:30pm 32.1 30.0 9.6 25 12.9 NNE 11 19 6 10 1015.8 1014.8 0.0
25/05:00pm 32.9 30.6 10.3 25 13.1 N 13 19 7 10 1015.5 1014.5 0.0
25/04:30pm 32.9 30.9 10.3 25 13.1 NNE 11 17 6 9 1015.4 1014.4 0.0
25/04:00pm 33.3 31.4 10.6 25 13.2 N 11 15 6 8 1015.6 1014.6 0.0
25/03:30pm 33.1 31.8 9.8 24 13.4 N 7 11 4 6 1015.9 1014.9 0.0
25/03:00pm 32.4 30.0 9.9 25 12.9 E 13 19 7 10 1016.3 1015.3 0.0
25/02:30pm 32.6 31.1 10.6 26 12.8 SW 9 11 5 6 1016.6 1015.6 0.0
25/02:00pm 32.1 30.8 11.3 28 12.2 SE 9 20 5 11 1017.0 1016.0 0.0
25/01:30pm 31.6 30.2 10.9 28 12.1 N 9 15 5 8 1017.5 1016.6 0.0
25/01:00pm 30.8 28.7 11.2 30 11.4 ENE 13 19 7 10 1017.8 1016.9 0.0
25/12:30pm 30.1 29.2 12.5 34 10.4 SSW 9 15 5 8 1018.4 1017.5 0.0
25/12:00pm 29.6 28.3 12.5 35 10.1 ENE 11 19 6 10 1019.1 1018.2 0.0
25/11:30am 28.5 27.2 12.4 37 9.5 N 11 20 6 11 1019.9 1018.9 0.0
25/11:00am 28.2 26.6 12.9 38 9.0 NE 13 19 7 10 1020.5 1019.5 0.0
25/10:30am 27.3 26.1 12.9 41 8.5 ENE 11 17 6 9 1021.1 1020.1 0.0
25/10:00am 26.3 25.2 13.1 44 7.8 ENE 11 26 6 14 1021.6 1020.6 0.0
25/09:30am 25.3 24.6 13.2 47 7.1 NNE 9 15 5 8 1021.8 1020.9 0.0
25/09:00am 24.5 23.1 13.4 50 6.5 N 13 20 7 11 1022.0 1021.1 0.0
25/08:30am 23.0 21.7 13.8 56 5.4 NNE 13 20 7 11 1022.2 1021.3 0.0
25/08:00am 23.1 22.6 14.9 60 4.9 NE 11 17 6 9 1022.2 1021.3 0.0
25/07:30am 21.0 19.9 14.4 66 3.9 NNE 13 20 7 11 1021.9 1021.0 0.0
25/07:00am 20.8 20.8 15.1 70 3.4 ENE 9 13 5 7 1021.7 1020.8 0.0
25/06:30am 19.3 18.7 14.6 74 2.8 E 11 15 6 8 1021.3 1020.3 0.0
25/06:00am 17.4 17.5 13.9 80 2.0 ENE 6 9 3 5 1020.9 1019.9 0.0
25/05:30am 16.1 15.8 13.2 83 1.6 E 7 7 4 4 1020.7 1019.7 0.0
25/05:00am 16.1 15.7 13.0 82 1.7 E 7 7 4 4 1020.6 1019.6 0.0
25/04:30am 16.2 15.5 13.1 82 1.7 E 9 11 5 6 1020.4 1019.4 0.0
25/04:00am 16.4 15.4 13.3 82 1.7 E 11 13 6 7 1020.3 1019.3 0.0
25/03:30am 16.7 15.8 13.6 82 1.8 E 11 15 6 8 1020.2 1019.2 0.0
25/03:00am 16.7 15.8 13.6 82 1.8 ENE 11 15 6 8 1020.1 1019.1 0.0
25/02:30am 16.4 15.4 13.3 82 1.8 ENE 11 13 6 7 1020.0 1019.0 0.0
25/02:00am 16.0 14.7 12.4 79 2.0 ENE 11 13 6 7 1020.1 1019.1 0.0
25/01:30am 16.4 15.0 12.2 76 2.3 NE 11 13 6 7 1020.4 1019.4 0.0
25/01:00am 17.1 16.6 12.2 73 2.7 NE 6 9 3 5 1020.7 1019.7 0.0
25/12:30am 16.7 14.8 11.8 73 2.7 NE 13 15 7 8 1020.8 1019.8 0.0
25/12:00am 17.3 15.0 11.6 69 3.1 NE 15 17 8 9 1020.9 1019.9 0.0
 
Date/Time
EST
Temp
°C
App
Temp
°C
Dew
Point
Rel
Hum
%
Delta-T
°C
Wind Press
QNH
hPa
Press
MSL
hPa
Rain
since 9 am
mm
Dir
 
Spd
km/h
Gust
km/h
Spd
kts
Gust
kts
24/11:30pm 18.5 15.8 11.6 64 3.8 NNE 17 19 9 10 1021.1 1020.1 0.0
24/11:00pm 18.9 16.1 11.2 61 4.2 NE 17 20 9 11 1021.3 1020.3 0.0
24/10:30pm 19.7 16.9 11.2 58 4.7 NE 17 22 9 12 1021.4 1020.4 0.0
24/10:00pm 20.9 17.7 11.3 54 5.3 NNE 19 28 10 15 1021.2 1020.2 0.0
24/09:30pm 21.4 17.8 11.7 54 5.5 NE 22 30 12 16 1020.9 1019.9 0.0
24/09:00pm 21.9 18.9 11.9 53 5.6 NE 19 24 10 13 1020.7 1019.7 0.0
24/08:30pm 22.9 20.0 12.2 51 6.1 NE 19 26 10 14 1020.3 1019.3 0.0
24/08:00pm 24.1 21.1 12.4 48 6.7 NE 20 33 11 18 1019.8 1018.8 0.0
24/07:30pm 25.9 22.4 10.1 37 8.8 NE 19 26 10 14 1018.9 1018.0 0.0
24/07:00pm 27.2 23.8 9.1 32 10.0 ENE 17 20 9 11 1018.3 1017.4 0.0
24/06:30pm 28.1 24.3 8.9 30 10.6 E 19 26 10 14 1017.7 1016.8 0.0
24/06:00pm 29.3 25.3 8.9 28 11.4 E 20 28 11 15 1017.5 1016.6 0.0
24/05:30pm 30.2 25.5 9.1 27 11.9 E 24 33 13 18 1017.1 1016.2 0.0
24/05:00pm 31.5 26.8 9.1 25 12.7 ENE 24 33 13 18 1016.8 1015.8 0.0
24/04:30pm 32.0 26.8 8.9 24 13.1 ENE 26 33 14 18 1016.4 1015.4 0.0
24/04:00pm 32.4 27.1 8.6 23 13.4 ENE 26 39 14 21 1016.2 1015.2 0.0
24/03:30pm 32.2 28.0 8.4 23 13.4 ENE 20 37 11 20 1016.4 1015.4 0.0
24/03:00pm 32.1 29.7 10.2 26 12.6 E 13 20 7 11 1016.7 1015.7 0.0
24/02:30pm 31.9 28.2 10.0 26 12.6 E 20 28 11 15 1017.1 1016.2 0.0
24/02:00pm 31.7 29.4 10.4 27 12.3 NNW 13 24 7 13 1017.6 1016.7 0.0
24/01:30pm 31.0 28.3 10.4 28 11.9 E 15 24 8 13 1018.3 1017.4 0.0
24/01:00pm 30.8 27.8 10.7 29 11.6 ENE 17 28 9 15 1018.9 1018.0 0.0
24/12:30pm 31.3 29.2 11.1 29 11.8 NNE 13 24 7 13 1019.4 1018.5 0.0
24/12:00pm 29.6 26.5 10.2 30 11.0 E 17 26 9 14 1020.2 1019.2 0.0
24/11:30am 28.7 26.4 10.4 32 10.4 NE 13 28 7 15 1020.7 1019.7 0.0
24/11:00am 27.8 25.9 10.5 34 9.8 E 11 17 6 9 1021.1 1020.1 0.0
24/10:30am 27.4 25.3 11.0 36 9.4 NE 13 20 7 11 1021.4 1020.4 0.0
24/10:00am 26.1 24.6 10.7 38 8.7 NNE 9 15 5 8 1021.8 1020.9 0.0
24/09:30am 25.5 24.3 11.7 42 7.9 NE 9 17 5 9 1022.1 1021.2 0.0
24/09:00am 24.8 23.2 11.7 44 7.5 NE 11 17 6 9 1022.3 1021.4 0.0
24/08:30am 24.1 23.0 12.1 47 6.9 ENE 9 15 5 8 1022.3 1021.4 0.0
24/08:00am 22.6 20.8 11.0 48 6.5 NE 11 17 6 9 1022.3 1021.4 0.0
24/07:30am 21.6 19.5 11.3 52 5.8 NE 13 19 7 10 1022.2 1021.3 0.0
24/07:00am 20.8 19.2 11.7 56 5.1 NE 11 15 6 8 1021.7 1020.8 0.0
24/06:30am 18.0 17.4 11.8 67 3.4 N 6 9 3 5 1021.5 1020.5 0.0
24/06:00am 15.1 14.0 10.1 72 2.6 ENE 6 6 3 3 1021.1 1020.1 0.0
24/05:30am 15.1 13.7 9.7 70 2.8 ENE 7 7 4 4 1020.9 1019.9 0.0
24/05:00am 16.3 14.7 10.2 67 3.2 E 9 11 5 6 1020.4 1019.4 0.0
24/04:30am 16.2 16.4 10.5 69 3.0 CALM 0 4 0 2 1020.2 1019.2 0.0
24/04:00am 16.5 15.3 10.4 67 3.3 E 7 11 4 6 1020.0 1019.0 0.0
24/03:30am 16.6 16.1 10.7 68 3.2 E 4 7 2 4 1019.9 1018.9 0.0
24/03:00am 15.6 13.5 9.9 69 3.0 ENE 11 13 6 7 1019.4 1018.5 0.0
24/02:30am 15.7 14.3 9.6 67 3.2 NE 7 11 4 6 1019.8 1018.8 0.0
24/02:00am 15.8 13.8 10.1 69 3.0 NE 11 13 6 7 1019.8 1018.8 0.0
24/01:30am 16.8 16.3 12.5 76 2.4 NNE 7 11 4 6 1020.2 1019.2 0.0
24/01:00am 17.6 15.9 13.5 77 2.3 NE 15 17 8 9 1020.4 1019.4 0.0
24/12:30am 18.6 16.9 13.5 72 2.9 NE 15 19 8 10 1020.6 1019.6 0.0
24/12:00am 19.4 17.4 13.8 70 3.2 ENE 17 20 9 11 1020.6 1019.6 0.0
 
Date/Time
EST
Temp
°C
App
Temp
°C
Dew
Point
Rel
Hum
%
Delta-T
°C
Wind Press
QNH
hPa
Press
MSL
hPa
Rain
since 9 am
mm
Dir
 
Spd
km/h
Gust
km/h
Spd
kts
Gust
kts
23/11:30pm 19.3 17.7 13.9 71 3.1 NE 15 20 8 11 1021.0 1020.0 0.0
23/11:00pm 19.7 18.2 13.2 66 3.7 NE 13 19 7 10 1021.2 1020.2 0.0
23/10:30pm 20.6 18.2 12.8 61 4.5 NE 17 24 9 13 1020.8 1019.8 0.0
23/10:00pm 21.3 18.4 12.4 57 5.1 NE 19 24 10 13 1020.5 1019.5 0.0
23/09:30pm 21.7 18.8 12.3 55 5.4 ENE 19 24 10 13 1020.2 1019.2 0.0
23/09:00pm 21.6 19.4 10.7 50 6.0 ENE 13 15 7 8 1019.7 1018.7 0.0
23/08:30pm 23.3 19.2 7.8 37 8.2 ENE 19 37 10 20 1018.9 1018.0 0.0
23/08:00pm 23.4 20.1 6.2 33 8.8 E 13 17 7 9 1018.4 1017.5 0.0
23/07:30pm 24.0 20.5 5.4 30 9.5 ENE 13 15 7 8 1018.1 1017.2 0.0
23/07:00pm 24.7 20.8 5.5 29 9.8 ENE 15 19 8 10 1017.7 1016.8 0.0
23/06:30pm 26.0 22.5 5.6 27 10.6 E 13 19 7 10 1017.5 1016.6 0.0
23/06:00pm 27.9 24.0 5.5 24 11.7 ENE 15 22 8 12 1017.1 1016.2 0.0
23/05:30pm 29.3 25.5 6.0 23 12.4 ENE 15 20 8 11 1016.8 1015.8 0.0
23/05:00pm 30.1 25.8 5.4 21 13.0 E 17 26 9 14 1016.5 1015.5 0.0
23/04:30pm 30.7 25.4 2.0 16 14.4 SE 19 26 10 14 1016.4 1015.4 0.0
23/04:00pm 31.2 27.7 3.3 17 14.3 ENE 11 20 6 11 1016.1 1015.1 0.0

Other Formats:

Comma delimited format used in spreadsheet applications
http://www.bom.gov.au/fwo/IDQ60801/IDQ60801.94398.axf

JavaScript Object Notation format (JSON) in row-major order
http://www.bom.gov.au/fwo/IDQ60801/IDQ60801.94398.json